createdAt,value
2023-03-15T00:00:01.044Z,11.10
2023-03-15T00:03:02.794Z,9.20
2023-03-15T00:06:04.844Z,12.80
2023-03-15T00:09:06.620Z,12.30
2023-03-15T00:12:08.611Z,16.60
2023-03-15T00:15:13.982Z,17.00
2023-03-15T00:18:16.669Z,18.80
2023-03-15T00:21:18.197Z,22.50
2023-03-15T00:27:21.231Z,20.30
2023-03-15T00:30:22.874Z,20.50
2023-03-15T00:33:24.374Z,23.50
2023-03-15T00:39:27.759Z,20.60
2023-03-15T00:42:29.527Z,20.90
2023-03-15T00:45:31.206Z,20.60
2023-03-15T00:48:34.034Z,19.30
2023-03-15T00:51:35.585Z,19.10
2023-03-15T00:54:37.214Z,15.50
2023-03-15T00:57:40.641Z,16.80
2023-03-15T01:00:42.428Z,17.20
2023-03-15T01:03:45.719Z,18.20
2023-03-15T01:06:47.427Z,19.70
2023-03-15T01:09:49.217Z,17.10
2023-03-15T01:12:51.035Z,18.10
2023-03-15T01:15:52.630Z,18.20
2023-03-15T01:18:54.586Z,28.40
2023-03-15T01:21:56.567Z,26.70
2023-03-15T01:25:01.210Z,30.90
2023-03-15T01:31:18.521Z,31.20
2023-03-15T01:34:20.713Z,28.00
2023-03-15T01:37:22.336Z,28.80
2023-03-15T01:40:24.026Z,18.70
2023-03-15T01:43:27.717Z,11.10
2023-03-15T01:46:31.337Z,8.30
2023-03-15T01:49:33.531Z,9.60
2023-03-15T01:52:38.001Z,11.00
2023-03-15T01:55:40.438Z,7.90
2023-03-15T01:58:43.775Z,8.00
2023-03-15T02:01:46.000Z,8.20
2023-03-15T02:05:00.458Z,10.70
2023-03-15T02:08:02.722Z,5.10
2023-03-15T02:11:05.538Z,5.90
2023-03-15T02:14:10.014Z,6.80
2023-03-15T02:17:11.941Z,7.40
2023-03-15T02:20:36.532Z,5.80
2023-03-15T02:23:38.503Z,7.10
2023-03-15T02:26:44.453Z,8.60
2023-03-15T02:29:46.082Z,9.30
2023-03-15T02:35:49.471Z,7.40
2023-03-15T02:38:52.378Z,4.80
2023-03-15T02:41:56.549Z,9.10
2023-03-15T02:44:58.235Z,8.00
2023-03-15T02:54:03.389Z,9.90
2023-03-15T03:00:07.655Z,10.10
2023-03-15T03:03:09.288Z,10.60
2023-03-15T03:06:12.305Z,10.60
2023-03-15T03:09:13.876Z,11.60
2023-03-15T03:12:15.479Z,15.00
2023-03-15T03:15:17.211Z,9.40
2023-03-15T03:21:20.309Z,12.10
2023-03-15T03:24:21.896Z,12.80
2023-03-15T03:27:23.587Z,15.10
2023-03-15T03:30:25.193Z,10.80
2023-03-15T03:33:26.784Z,11.00
2023-03-15T03:39:30.046Z,12.40
2023-03-15T03:45:33.289Z,13.00
2023-03-15T03:48:35.324Z,16.60
2023-03-15T03:51:36.951Z,13.20
2023-03-15T03:57:43.618Z,15.10
2023-03-15T04:00:45.388Z,16.30
2023-03-15T04:03:47.003Z,16.00
2023-03-15T04:06:48.590Z,21.80
2023-03-15T04:09:50.189Z,21.60
2023-03-15T04:12:51.725Z,20.90
2023-03-15T04:15:53.353Z,19.90
2023-03-15T04:18:55.020Z,19.60
2023-03-15T04:24:58.325Z,16.40
2023-03-15T04:27:59.907Z,23.50
2023-03-15T04:34:03.939Z,17.70
2023-03-15T04:37:06.067Z,16.80
2023-03-15T04:40:08.602Z,18.40
2023-03-15T04:43:10.266Z,20.60
2023-03-15T04:49:13.355Z,20.80
2023-03-15T04:52:14.930Z,23.10
2023-03-15T05:01:23.373Z,16.70
2023-03-15T05:04:25.012Z,22.20
2023-03-15T05:10:28.076Z,19.20
2023-03-15T05:13:30.137Z,21.30
2023-03-15T05:16:31.758Z,25.30
2023-03-15T05:22:35.137Z,23.00
2023-03-15T05:25:38.642Z,20.00
2023-03-15T05:28:40.640Z,18.40
2023-03-15T05:37:45.772Z,20.30
2023-03-15T05:40:47.406Z,26.00
2023-03-15T05:43:49.179Z,27.70
2023-03-15T05:49:52.545Z,22.30
2023-03-15T05:55:56.269Z,25.40
2023-03-15T05:58:57.863Z,21.30
2023-03-15T06:01:59.662Z,23.00
2023-03-15T06:08:02.963Z,23.20
2023-03-15T06:14:06.250Z,23.60
2023-03-15T06:17:08.004Z,26.10
2023-03-15T06:26:13.184Z,29.50
2023-03-15T06:29:15.798Z,23.70
2023-03-15T06:32:17.831Z,26.50
2023-03-15T06:35:19.598Z,24.60
2023-03-15T06:41:22.682Z,22.50
2023-03-15T06:44:24.253Z,20.20
2023-03-15T06:47:25.974Z,24.60
2023-03-15T06:53:36.338Z,22.70
2023-03-15T06:56:37.970Z,30.50
2023-03-15T07:02:41.145Z,29.10
2023-03-15T07:05:42.914Z,24.20
2023-03-15T07:11:46.349Z,28.70
2023-03-15T07:14:47.949Z,21.60
2023-03-15T07:17:49.565Z,23.10
2023-03-15T07:23:59.426Z,29.00
2023-03-15T07:27:01.286Z,27.80
2023-03-15T07:30:04.601Z,28.00
2023-03-15T07:33:06.341Z,29.90
2023-03-15T07:36:09.017Z,33.00
2023-03-15T07:39:10.575Z,31.90
2023-03-15T07:45:13.976Z,23.20
2023-03-15T07:48:15.656Z,26.30
2023-03-15T07:54:18.921Z,25.80
2023-03-15T07:57:20.542Z,21.30
2023-03-15T08:00:22.447Z,23.00
2023-03-15T08:03:24.814Z,28.20
2023-03-15T08:06:26.345Z,24.90
2023-03-15T08:09:28.027Z,20.90
2023-03-15T08:12:29.671Z,25.20
2023-03-15T08:15:31.351Z,24.00
2023-03-15T08:18:33.066Z,26.40
2023-03-15T08:24:36.301Z,24.30
2023-03-15T08:30:40.884Z,30.30
2023-03-15T08:33:42.727Z,21.90
2023-03-15T08:36:46.789Z,45.30
2023-03-15T08:39:48.365Z,30.70
2023-03-15T08:46:00.742Z,21.60
2023-03-15T08:49:03.072Z,27.70
2023-03-15T08:55:07.121Z,23.20
2023-03-15T08:58:08.992Z,22.70
2023-03-15T09:01:14.616Z,22.20
2023-03-15T09:04:16.347Z,25.80
2023-03-15T09:07:18.023Z,27.70
2023-03-15T09:10:20.512Z,37.80
2023-03-15T09:13:22.587Z,27.80
2023-03-15T09:16:24.295Z,26.90
2023-03-15T09:22:39.104Z,21.90
2023-03-15T09:25:41.769Z,24.00
2023-03-15T09:28:43.456Z,28.10
2023-03-15T09:34:46.818Z,24.00
2023-03-15T09:37:49.875Z,26.90
2023-03-15T09:40:56.558Z,30.40
2023-03-15T09:44:07.050Z,23.10
2023-03-15T09:47:15.769Z,26.50
2023-03-15T09:50:31.305Z,24.40
2023-03-15T09:54:05.357Z,22.40
2023-03-15T09:57:15.068Z,24.40
2023-03-15T10:00:23.990Z,28.30
2023-03-15T10:03:48.424Z,21.00
2023-03-15T10:06:54.813Z,21.70
2023-03-15T10:09:56.320Z,22.70
2023-03-15T10:19:50.115Z,20.20
2023-03-15T10:23:09.232Z,25.70
2023-03-15T10:26:15.682Z,25.20
2023-03-15T10:29:20.658Z,26.40
2023-03-15T10:32:26.996Z,21.80
2023-03-15T10:35:29.123Z,24.30
2023-03-15T10:38:30.680Z,20.40
2023-03-15T10:44:44.534Z,21.80
2023-03-15T10:47:57.649Z,23.60
2023-03-15T10:51:06.361Z,24.40
2023-03-15T10:54:21.324Z,20.10
2023-03-15T10:57:26.384Z,17.70
2023-03-15T11:00:34.916Z,23.20
2023-03-15T11:03:37.997Z,19.30
2023-03-15T11:06:57.851Z,20.80
2023-03-15T11:10:01.401Z,21.80
2023-03-15T11:13:14.553Z,23.90
2023-03-15T11:16:16.141Z,21.10
2023-03-15T11:22:20.210Z,22.60
2023-03-15T11:25:24.930Z,26.10
2023-03-15T11:28:30.088Z,21.20
2023-03-15T11:31:31.912Z,24.10
2023-03-15T11:34:39.247Z,18.30
2023-03-15T11:37:58.518Z,23.70
2023-03-15T11:41:34.846Z,20.80
2023-03-15T11:44:45.026Z,19.80
2023-03-15T11:47:51.798Z,22.30
2023-03-15T11:50:58.092Z,20.60
2023-03-15T11:54:12.554Z,14.70
2023-03-15T11:57:29.714Z,17.30
2023-03-15T12:00:31.284Z,18.10
2023-03-15T12:03:41.585Z,20.50
2023-03-15T12:06:43.182Z,18.60
2023-03-15T12:10:03.313Z,17.90
2023-03-15T12:13:18.736Z,17.50
2023-03-15T12:16:22.099Z,19.60
2023-03-15T12:19:25.193Z,16.70
2023-03-15T12:22:31.390Z,22.40
2023-03-15T12:25:49.010Z,21.20
2023-03-15T12:29:00.399Z,18.90
2023-03-15T12:32:02.151Z,18.30
2023-03-15T12:35:16.656Z,20.90
2023-03-15T12:38:20.714Z,18.70
2023-03-15T12:41:43.395Z,15.60
2023-03-15T12:44:45.036Z,22.10
2023-03-15T12:47:49.484Z,21.30
2023-03-15T12:50:59.012Z,23.40
2023-03-15T12:54:00.754Z,21.90
2023-03-15T12:57:04.341Z,20.90
2023-03-15T13:00:26.996Z,23.70
2023-03-15T13:03:28.559Z,18.80
2023-03-15T13:06:51.817Z,20.70
2023-03-15T13:10:00.345Z,20.60
2023-03-15T13:13:23.185Z,19.00
2023-03-15T13:16:42.696Z,18.90
2023-03-15T13:19:46.967Z,21.10
2023-03-15T13:23:07.053Z,21.00
2023-03-15T13:26:08.727Z,18.40
2023-03-15T13:29:14.092Z,21.00
2023-03-15T13:32:18.448Z,23.00
2023-03-15T13:35:20.209Z,19.30
2023-03-15T13:38:28.433Z,16.00
2023-03-15T13:41:30.931Z,17.60
2023-03-15T13:44:33.381Z,17.30
2023-03-15T13:47:35.472Z,15.20
2023-03-15T13:50:37.970Z,19.70
2023-03-15T13:53:49.437Z,16.40
2023-03-15T13:57:17.396Z,15.50
2023-03-15T14:00:19.464Z,18.30
2023-03-15T14:03:22.063Z,20.30
2023-03-15T14:06:26.025Z,15.90
2023-03-15T14:09:27.784Z,19.10
2023-03-15T14:12:30.437Z,19.90
2023-03-15T14:15:42.350Z,17.50
2023-03-15T14:18:44.018Z,17.50
2023-03-15T14:21:48.353Z,19.30
2023-03-15T14:24:51.773Z,17.70
2023-03-15T14:27:53.970Z,14.00
2023-03-15T14:30:57.988Z,17.00
2023-03-15T14:34:10.913Z,20.20
2023-03-15T14:37:39.340Z,17.60
2023-03-15T14:40:41.554Z,22.10
2023-03-15T14:43:43.133Z,17.00
2023-03-15T14:49:46.178Z,16.50
2023-03-15T14:52:48.617Z,20.70
2023-03-15T14:55:50.236Z,20.70
2023-03-15T15:01:55.818Z,19.80
2023-03-15T15:04:57.418Z,14.40
2023-03-15T15:08:11.851Z,19.10
2023-03-15T15:11:14.597Z,14.10
2023-03-15T15:14:16.674Z,16.40
2023-03-15T15:17:18.363Z,19.90
2023-03-15T15:26:25.639Z,18.40
2023-03-15T15:29:27.377Z,20.00
2023-03-15T15:32:28.992Z,20.60
2023-03-15T15:41:34.856Z,23.40
2023-03-15T15:47:38.013Z,19.50
2023-03-15T15:53:41.099Z,22.40
2023-03-15T15:59:47.784Z,38.20
2023-03-15T16:02:50.427Z,27.40
2023-03-15T16:05:52.105Z,25.50
2023-03-15T16:08:54.365Z,26.70
2023-03-15T16:11:55.969Z,25.80
2023-03-15T16:14:57.638Z,19.40
2023-03-15T16:18:01.834Z,25.00
2023-03-15T16:21:03.936Z,22.10
2023-03-15T16:27:08.311Z,23.60
2023-03-15T16:30:21.484Z,22.40
2023-03-15T16:33:23.289Z,25.30
2023-03-15T16:36:24.834Z,22.60
2023-03-15T16:39:26.683Z,22.10
2023-03-15T16:45:29.963Z,43.50
2023-03-15T16:48:31.508Z,28.40
2023-03-15T16:51:33.856Z,26.70
2023-03-15T16:54:41.196Z,31.10
2023-03-15T16:57:43.347Z,28.70
2023-03-15T17:03:46.681Z,23.80
2023-03-15T17:09:50.337Z,24.70
2023-03-15T17:15:53.665Z,27.60
2023-03-15T17:18:55.650Z,27.80
2023-03-15T17:21:57.269Z,34.50
2023-03-15T17:24:58.842Z,34.50
2023-03-15T17:28:00.556Z,35.90
2023-03-15T17:31:23.251Z,30.60
2023-03-15T17:34:23.723Z,38.80
2023-03-15T17:40:29.125Z,38.80
2023-03-15T17:43:30.806Z,37.20
2023-03-15T17:52:36.186Z,45.90
2023-03-15T17:55:38.053Z,48.60
2023-03-15T17:58:39.696Z,53.20
2023-03-15T18:01:41.464Z,49.60
2023-03-15T18:04:43.410Z,48.90
2023-03-15T18:07:57.799Z,50.40
2023-03-15T18:11:00.309Z,64.70
2023-03-15T18:14:03.499Z,57.10
2023-03-15T18:17:05.082Z,62.90
2023-03-15T18:20:08.911Z,59.60
2023-03-15T18:23:14.850Z,54.30
2023-03-15T18:26:17.117Z,58.80
2023-03-15T18:29:18.710Z,63.90
2023-03-15T18:35:26.096Z,76.30
2023-03-15T18:38:27.767Z,66.00
2023-03-15T18:44:31.627Z,58.50
2023-03-15T18:47:33.441Z,70.80
2023-03-15T18:50:35.686Z,146.60
2023-03-15T18:53:37.345Z,132.40
2023-03-15T18:56:39.143Z,76.70
2023-03-15T19:02:45.516Z,56.90
2023-03-15T19:05:47.468Z,51.50
2023-03-15T19:08:49.503Z,43.00
2023-03-15T19:11:51.239Z,47.80
2023-03-15T19:17:54.545Z,50.40
2023-03-15T19:23:58.358Z,52.60
2023-03-15T19:27:00.048Z,52.40
2023-03-15T19:33:03.976Z,44.60
2023-03-15T19:36:06.083Z,47.60
2023-03-15T19:39:07.709Z,47.10
2023-03-15T19:42:09.242Z,50.70
2023-03-15T19:45:11.425Z,48.60
2023-03-15T19:48:15.382Z,45.30
2023-03-15T19:51:18.077Z,44.80
2023-03-15T19:54:19.631Z,46.90
2023-03-15T19:57:21.593Z,47.50
2023-03-15T20:00:23.886Z,45.60
2023-03-15T20:03:25.813Z,46.00
2023-03-15T20:06:27.340Z,39.80
2023-03-15T20:09:28.878Z,44.90
2023-03-15T20:12:30.744Z,43.40
2023-03-15T20:15:32.450Z,48.30
2023-03-15T20:18:34.078Z,53.30
2023-03-15T20:21:35.751Z,42.90
2023-03-15T20:24:37.429Z,47.60
2023-03-15T20:27:39.198Z,47.50
2023-03-15T20:30:44.158Z,42.30
2023-03-15T20:33:48.904Z,53.10
2023-03-15T20:36:50.766Z,57.40
2023-03-15T20:39:52.326Z,58.90
2023-03-15T20:42:54.065Z,70.20
2023-03-15T20:45:56.875Z,77.30
2023-03-15T20:48:58.541Z,84.10
2023-03-15T20:52:00.174Z,77.20
2023-03-15T20:55:01.828Z,70.80
2023-03-15T20:58:03.531Z,74.10
2023-03-15T21:01:07.231Z,65.30
2023-03-15T21:04:08.866Z,63.90
2023-03-15T21:07:13.429Z,60.90
2023-03-15T21:10:15.337Z,59.50
2023-03-15T21:13:16.974Z,57.70
2023-03-15T21:16:18.698Z,52.60
2023-03-15T21:22:25.387Z,49.50
2023-03-15T21:25:27.013Z,48.30
2023-03-15T21:28:29.423Z,47.10
2023-03-15T21:31:31.210Z,59.50
2023-03-15T21:37:34.668Z,68.00
2023-03-15T21:43:37.985Z,74.50
2023-03-15T21:49:41.217Z,68.90
2023-03-15T21:52:42.784Z,77.20
2023-03-15T21:55:44.337Z,84.10
2023-03-15T21:58:45.837Z,74.90
2023-03-15T22:01:47.597Z,82.20
2023-03-15T22:04:49.157Z,76.80
2023-03-15T22:07:50.793Z,78.00
2023-03-15T22:10:54.083Z,78.50
2023-03-15T22:13:55.715Z,74.40
2023-03-15T22:16:57.341Z,79.00
2023-03-15T22:23:00.604Z,80.00
2023-03-15T22:26:02.177Z,78.40
2023-03-15T22:29:03.813Z,83.50
2023-03-15T22:32:06.274Z,82.10
2023-03-15T22:35:08.151Z,78.70
2023-03-15T22:38:09.864Z,92.10
2023-03-15T22:41:11.734Z,86.80
2023-03-15T22:44:13.307Z,82.00
2023-03-15T22:47:14.922Z,86.30
2023-03-15T22:50:16.537Z,87.00
2023-03-15T22:53:18.199Z,80.90
2023-03-15T22:59:21.313Z,82.40
2023-03-15T23:02:22.778Z,86.50
2023-03-15T23:05:24.468Z,76.50
2023-03-15T23:08:26.077Z,79.70
2023-03-15T23:11:27.740Z,76.50
2023-03-15T23:14:29.334Z,86.00
2023-03-15T23:17:30.928Z,82.40
2023-03-15T23:20:33.146Z,83.60
2023-03-15T23:23:37.124Z,75.50
2023-03-15T23:26:38.719Z,78.20
2023-03-15T23:29:53.276Z,64.70
2023-03-15T23:32:56.076Z,74.70
2023-03-15T23:38:59.374Z,69.30
2023-03-15T23:42:01.167Z,64.30
2023-03-15T23:48:04.492Z,59.90
2023-03-15T23:51:06.131Z,43.40
2023-03-15T23:54:07.659Z,41.70
2023-03-15T23:57:11.848Z,45.90
